Airfield :
LOGIN :

Register | Disclaimer

   EN    FR    IT 

 










Legend :    VFR   Marginal VFR   IFR   Intensive IFR   Very Intensive IFR
Visi :
Ceiling :
>= 8 km
>= 3000ft
5 to 8 km
1000 to 3000 ft
1500m to 5 km
500 to 1000 ft
800 to 1500m
200 to 500 ft
< 800m
< 200 ft
Symbols :   Thunderstorms  Fog  Heavy snow  Heavy precipitations  Wind > 20 kt
SIGMETs :     Misc.  Thunderstorms  Icing  Turbulence  Mountain Waves  Volcanic Ashes







- Airport Elevation : 665 ft
- IATA code : NOC


EIKN - Connaught / Knock- Ireland West

EXPIRED METARs :
  • 162130Z 17016KT 140V200 9999 SCT012 OVC035 09/06 Q1002 NOSIG
  • 162100Z 16013G24KT 130V200 9000 -RA SCT012 OVC034 09/06 Q1002 NOSIG
  • 162030Z 16012KT 9000 -RA SCT014 BKN037 OVC080 09/07 Q1002 NOSIG

TAF TAF EIKN
Valid from the 17 at 00:00 until the 18 at 00:00 UTC


162300Z 1700/1724 16017G28KT 9999 SCT015 BKN020
TEMPO 1700/1706 4000 -RADZ BKN005
PROB30
TEMPO 1700/1706 2000 BR BKN002
BECMG 1703/1706 19015G25KT
BECMG 1706/1709 9999 FEW010 SCT020
TEMPO 1713/1723 5000 -SHRA BKN010 FEW018CB
TEMPO 1714/1720 20020G35KT
No reported NOTAMs for that airfield.



MET'MAP, your aeronautical weather chart ! - Copyright ORBIFLY December 2007 - Disclaimer

ORBIFLY MET'MAP TEAM :

Programming & Development : Alexandra Zaïnal
Concept & Development : Baudouin d'Aumeries
Co-Development & Prog : Marc-Olivier Méhu
Technical & hardware support : Manuel Goepfert

Contact : metmap@orbifly.com




SOURCES & CREDITS :

   NOAA